Houlka, Mississippi
Current Conditions -  °F | °C
As of 5:53 PM on Saturday 22 Nov 2014 (Local Time) from KTUP Reporting Station
Clear Clear  
Wind Chill: 61°   Ceiling: Unl
Heat Index: 61°   Visibility: 10mi
Dew Point: 45°   Wind: 5mph
Humidity: 56%   Direction: 170°S
Pressure: 30.08"   Gusts: NA
Location:  34.04°N, 89.02°W
Report Text: KTUP 222353Z 17004KT 10SM CLR 16/07 A3008 RMK AO2 SLP187 60000 T01610072 10200 20161 56010 $
Loading
Personal Weather Stations






























Interactive Weather Map New forecast layout! Learn more

10-Day Weather Forecast

Advertisements
Track Severe Weather on mobile